createdAt,value
2023-01-04T00:00:02.742Z,0.00
2023-01-04T00:00:52.732Z,0.00
2023-01-04T00:01:42.632Z,0.00
2023-01-04T00:02:32.820Z,0.00
2023-01-04T00:03:22.698Z,0.00
2023-01-04T00:04:12.622Z,0.00
2023-01-04T00:05:02.594Z,0.00
2023-01-04T00:05:52.603Z,0.00
2023-01-04T00:06:42.572Z,0.00
2023-01-04T00:07:32.569Z,0.00
2023-01-04T00:08:22.557Z,0.00
2023-01-04T00:09:12.548Z,0.00
2023-01-04T00:10:02.547Z,0.00
2023-01-04T00:10:52.553Z,0.00
2023-01-04T00:11:42.521Z,0.00
2023-01-04T00:12:32.565Z,0.00
2023-01-04T00:13:22.496Z,0.00
2023-01-04T00:14:12.498Z,0.00
2023-01-04T00:15:02.477Z,0.00
2023-01-04T00:15:52.563Z,0.00
2023-01-04T00:16:42.506Z,0.00
2023-01-04T00:17:32.460Z,0.00
2023-01-04T00:18:22.443Z,0.00
2023-01-04T00:19:12.442Z,0.00
2023-01-04T00:20:02.459Z,0.00
2023-01-04T00:20:52.437Z,0.00
2023-01-04T00:21:42.405Z,0.00
2023-01-04T00:22:32.409Z,0.00
2023-01-04T00:23:22.392Z,0.00
2023-01-04T00:24:12.388Z,0.00
2023-01-04T00:25:02.384Z,0.00
2023-01-04T00:25:52.392Z,0.00
2023-01-04T00:26:42.376Z,0.00
2023-01-04T00:27:32.372Z,0.00
2023-01-04T00:28:22.353Z,0.00
2023-01-04T00:29:12.329Z,0.00
2023-01-04T00:30:02.324Z,0.00
2023-01-04T00:30:52.377Z,0.00
2023-01-04T00:31:42.360Z,0.00
2023-01-04T00:32:32.291Z,0.00
2023-01-04T00:33:22.276Z,0.00
2023-01-04T00:34:12.263Z,0.00
2023-01-04T00:35:02.288Z,0.00
2023-01-04T00:35:52.272Z,0.00
2023-01-04T00:36:42.232Z,0.00
2023-01-04T00:37:32.241Z,0.00
2023-01-04T00:38:22.219Z,0.00
2023-01-04T00:39:12.222Z,0.00
2023-01-04T00:40:02.287Z,0.00
2023-01-04T00:40:52.231Z,0.00
2023-01-04T00:41:58.612Z,0.00
2023-01-04T00:42:33.187Z,0.00
2023-01-04T00:43:22.160Z,0.00
2023-01-04T00:44:12.161Z,0.00
2023-01-04T00:45:02.160Z,0.00
2023-01-04T00:45:52.228Z,0.00
2023-01-04T00:46:42.193Z,0.00
2023-01-04T00:47:32.129Z,0.00
2023-01-04T00:48:22.123Z,0.00
2023-01-04T00:49:12.112Z,0.00
2023-01-04T00:50:02.100Z,0.00
2023-01-04T00:50:52.113Z,0.00
2023-01-04T00:51:42.080Z,0.00
2023-01-04T00:52:32.075Z,0.00
2023-01-04T00:53:22.069Z,0.00
2023-01-04T00:54:12.055Z,0.00
2023-01-04T00:55:02.038Z,0.00
2023-01-04T00:55:52.046Z,0.00
2023-01-04T00:56:42.042Z,0.00
2023-01-04T00:57:32.010Z,0.00
2023-01-04T00:58:22.006Z,0.00
2023-01-04T00:59:11.996Z,0.00
2023-01-04T01:00:01.979Z,0.00
2023-01-04T01:00:52.000Z,0.00
2023-01-04T01:01:42.102Z,0.00
2023-01-04T01:02:32.201Z,0.00
2023-01-04T01:03:22.123Z,0.00
2023-01-04T01:04:12.034Z,0.00
2023-01-04T01:05:01.962Z,0.00
2023-01-04T01:05:51.942Z,0.00
2023-01-04T01:06:41.907Z,0.00
2023-01-04T01:07:31.909Z,0.00
2023-01-04T01:08:21.888Z,0.00
2023-01-04T01:09:11.916Z,0.00
2023-01-04T01:10:01.878Z,0.00
2023-01-04T01:10:51.875Z,0.00
2023-01-04T01:11:41.854Z,0.00
2023-01-04T01:12:31.855Z,0.00
2023-01-04T01:13:21.843Z,0.00
2023-01-04T01:14:11.843Z,0.00
2023-01-04T01:15:01.814Z,0.00
2023-01-04T01:15:51.857Z,0.00
2023-01-04T01:16:58.645Z,0.00
2023-01-04T01:17:32.802Z,0.00
2023-01-04T01:18:21.796Z,0.00
2023-01-04T01:19:11.771Z,0.00
2023-01-04T01:20:01.768Z,0.00
2023-01-04T01:20:51.779Z,0.00
2023-01-04T01:21:41.742Z,0.00
2023-01-04T01:22:31.755Z,0.00
2023-01-04T01:23:21.724Z,0.00
2023-01-04T01:24:11.723Z,0.00
2023-01-04T01:25:01.722Z,0.00
2023-01-04T01:25:51.738Z,0.00
2023-01-04T01:26:41.709Z,0.00
2023-01-04T01:27:31.693Z,0.00
2023-01-04T01:28:21.672Z,0.00
2023-01-04T01:29:11.690Z,0.00
2023-01-04T01:30:01.657Z,0.00
2023-01-04T01:30:51.733Z,0.00
2023-01-04T01:31:41.809Z,0.00
2023-01-04T01:32:31.631Z,0.00
2023-01-04T01:33:21.651Z,0.00
2023-01-04T01:34:11.614Z,0.00
2023-01-04T01:35:01.590Z,0.00
2023-01-04T01:35:51.604Z,0.00
2023-01-04T01:36:41.594Z,0.00
2023-01-04T01:37:31.572Z,0.00
2023-01-04T01:38:21.561Z,0.00
2023-01-04T01:39:11.569Z,0.00
2023-01-04T01:40:01.539Z,0.00
2023-01-04T01:40:51.555Z,0.00
2023-01-04T01:41:41.537Z,0.00
2023-01-04T01:42:31.521Z,0.00
2023-01-04T01:43:21.545Z,0.00
2023-01-04T01:44:11.499Z,0.00
2023-01-04T01:45:01.486Z,0.00
2023-01-04T01:45:51.573Z,0.00
2023-01-04T01:46:41.643Z,0.00
2023-01-04T01:47:31.467Z,0.00
2023-01-04T01:48:21.448Z,0.00
2023-01-04T01:49:11.456Z,0.00
2023-01-04T01:50:01.440Z,0.00
2023-01-04T01:50:51.442Z,0.00
2023-01-04T01:51:41.431Z,0.00
2023-01-04T01:52:31.411Z,0.00
2023-01-04T01:53:21.396Z,0.00
2023-01-04T01:54:11.386Z,0.00
2023-01-04T01:55:01.388Z,0.00
2023-01-04T01:55:51.392Z,0.00
2023-01-04T01:56:41.356Z,0.00
2023-01-04T01:57:31.356Z,0.00
2023-01-04T01:58:21.343Z,0.00
2023-01-04T01:59:11.336Z,0.00
2023-01-04T02:00:01.361Z,0.00
2023-01-04T02:00:51.328Z,0.00
2023-01-04T02:01:41.464Z,0.00
2023-01-04T02:02:31.432Z,0.00
2023-01-04T02:03:21.529Z,0.00
2023-01-04T02:04:11.404Z,0.00
2023-01-04T02:05:01.275Z,0.00
2023-01-04T02:05:51.289Z,0.00
2023-01-04T02:06:41.252Z,0.00
2023-01-04T02:07:31.233Z,0.00
2023-01-04T02:08:21.275Z,0.00
2023-01-04T02:09:11.222Z,0.00
2023-01-04T02:10:01.214Z,0.00
2023-01-04T02:10:51.232Z,0.00
2023-01-04T02:11:41.191Z,0.00
2023-01-04T02:12:31.183Z,0.00
2023-01-04T02:13:21.172Z,0.00
2023-01-04T02:14:11.174Z,0.00
2023-01-04T02:15:01.152Z,0.00
2023-01-04T02:15:51.194Z,0.00
2023-01-04T02:16:41.155Z,0.00
2023-01-04T02:17:31.133Z,0.00
2023-01-04T02:18:21.128Z,0.00
2023-01-04T02:19:11.119Z,0.00
2023-01-04T02:20:01.111Z,0.00
2023-01-04T02:20:51.108Z,0.00
2023-01-04T02:21:41.101Z,0.00
2023-01-04T02:22:31.067Z,0.00
2023-01-04T02:23:21.108Z,0.00
2023-01-04T02:24:11.057Z,0.00
2023-01-04T02:25:01.039Z,0.00
2023-01-04T02:25:51.055Z,0.00
2023-01-04T02:26:41.034Z,0.00
2023-01-04T02:27:31.029Z,0.00
2023-01-04T02:28:21.030Z,0.00
2023-01-04T02:29:11.001Z,0.00
2023-01-04T02:30:01.026Z,0.00
2023-01-04T02:30:51.046Z,0.00
2023-01-04T02:31:41.096Z,0.00
2023-01-04T02:32:30.977Z,0.00
2023-01-04T02:33:20.955Z,0.00
2023-01-04T02:34:10.949Z,0.00
2023-01-04T02:35:00.950Z,0.00
2023-01-04T02:35:50.951Z,0.00
2023-01-04T02:36:40.927Z,0.00
2023-01-04T02:37:30.914Z,0.00
2023-01-04T02:38:20.906Z,0.00
2023-01-04T02:39:10.905Z,0.00
2023-01-04T02:40:00.882Z,0.00
2023-01-04T02:40:50.903Z,0.00
2023-01-04T02:41:40.856Z,0.00
2023-01-04T02:42:30.854Z,0.00
2023-01-04T02:43:20.851Z,0.00
2023-01-04T02:44:10.865Z,0.00
2023-01-04T02:45:00.837Z,0.00
2023-01-04T02:45:50.836Z,0.00
2023-01-04T02:46:40.859Z,0.00
2023-01-04T02:47:30.795Z,0.00
2023-01-04T02:48:20.796Z,0.00
2023-01-04T02:49:10.776Z,0.00
2023-01-04T02:50:04.980Z,0.00
2023-01-04T02:50:50.782Z,0.00
2023-01-04T02:51:40.754Z,0.00
2023-01-04T02:52:30.741Z,0.00
2023-01-04T02:53:20.737Z,0.00
2023-01-04T02:54:10.713Z,0.00
2023-01-04T02:55:00.710Z,0.00
2023-01-04T02:55:50.713Z,0.00
2023-01-04T02:56:40.693Z,0.00
2023-01-04T02:57:30.696Z,0.00
2023-01-04T02:58:20.705Z,0.00
2023-01-04T02:59:10.690Z,0.00
2023-01-04T03:00:00.666Z,0.00
2023-01-04T03:00:50.663Z,0.00
2023-01-04T03:01:40.830Z,0.00
2023-01-04T03:02:30.782Z,0.00
2023-01-04T03:03:20.774Z,0.00
2023-01-04T03:04:10.663Z,0.00
2023-01-04T03:05:00.601Z,0.00
2023-01-04T03:05:50.607Z,0.00
2023-01-04T03:06:40.595Z,0.00
2023-01-04T03:07:30.583Z,0.00
2023-01-04T03:08:20.575Z,0.00
2023-01-04T03:09:10.551Z,0.00
2023-01-04T03:10:00.565Z,0.00
2023-01-04T03:10:50.565Z,0.00
2023-01-04T03:11:40.535Z,0.00
2023-01-04T03:12:30.545Z,0.00
2023-01-04T03:13:20.510Z,0.00
2023-01-04T03:14:31.800Z,0.00
2023-01-04T03:15:01.509Z,0.00
2023-01-04T03:15:50.566Z,0.00
2023-01-04T03:16:40.560Z,0.00
2023-01-04T03:17:30.487Z,0.00
2023-01-04T03:18:20.467Z,0.00
2023-01-04T03:19:10.467Z,0.00
2023-01-04T03:20:00.447Z,0.00
2023-01-04T03:20:50.442Z,0.00
2023-01-04T03:21:40.422Z,0.00
2023-01-04T03:22:30.411Z,0.00
2023-01-04T03:23:20.404Z,0.00
2023-01-04T03:24:10.397Z,0.00
2023-01-04T03:25:00.405Z,0.00
2023-01-04T03:25:50.384Z,0.00
2023-01-04T03:26:40.367Z,0.00
2023-01-04T03:27:30.359Z,0.00
2023-01-04T03:28:20.353Z,0.00
2023-01-04T03:29:10.333Z,0.00
2023-01-04T03:30:00.362Z,0.00
2023-01-04T03:30:50.332Z,0.00
2023-01-04T03:31:40.357Z,0.00
2023-01-04T03:32:30.317Z,0.00
2023-01-04T03:33:20.306Z,0.00
2023-01-04T03:34:10.279Z,0.00
2023-01-04T03:35:00.283Z,0.00
2023-01-04T03:35:50.317Z,0.00
2023-01-04T03:36:40.257Z,0.00
2023-01-04T03:37:30.254Z,0.00
2023-01-04T03:38:20.243Z,0.00
2023-01-04T03:39:10.235Z,0.00
2023-01-04T03:40:00.240Z,0.00
2023-01-04T03:40:50.221Z,0.00
2023-01-04T03:41:40.207Z,0.00
2023-01-04T03:42:30.185Z,0.00
2023-01-04T03:43:20.183Z,0.00
2023-01-04T03:44:10.166Z,0.00
2023-01-04T03:45:05.888Z,0.00
2023-01-04T03:45:51.182Z,0.00
2023-01-04T03:46:40.245Z,0.00
2023-01-04T03:47:30.135Z,0.00
2023-01-04T03:48:20.127Z,0.00
2023-01-04T03:49:10.114Z,0.00
2023-01-04T03:50:00.114Z,0.00
2023-01-04T03:50:50.124Z,0.00
2023-01-04T03:51:40.092Z,0.00
2023-01-04T03:52:30.086Z,0.00
2023-01-04T03:53:20.077Z,0.00
2023-01-04T03:54:10.069Z,0.00
2023-01-04T03:55:00.052Z,0.00
2023-01-04T03:55:50.051Z,0.00
2023-01-04T03:56:40.039Z,0.00
2023-01-04T03:57:30.056Z,0.00
2023-01-04T03:58:20.079Z,0.00
2023-01-04T03:59:10.031Z,0.00
2023-01-04T04:00:00.000Z,0.00
2023-01-04T04:00:50.101Z,0.00
2023-01-04T04:01:40.215Z,0.00
2023-01-04T04:02:29.999Z,0.00
2023-01-04T04:03:19.964Z,0.00
2023-01-04T04:04:09.985Z,0.00
2023-01-04T04:04:59.963Z,0.00
2023-01-04T04:05:49.944Z,0.00
2023-01-04T04:06:39.939Z,0.00
2023-01-04T04:07:29.927Z,0.00
2023-01-04T04:08:19.918Z,0.00
2023-01-04T04:09:09.937Z,0.00
2023-01-04T04:09:59.890Z,0.00
2023-01-04T04:10:49.889Z,0.00
2023-01-04T04:11:39.868Z,0.00
2023-01-04T04:12:29.860Z,0.00
2023-01-04T04:13:19.858Z,0.00
2023-01-04T04:14:09.847Z,0.00
2023-01-04T04:14:59.836Z,0.00
2023-01-04T04:15:49.875Z,0.00
2023-01-04T04:16:39.883Z,0.00
2023-01-04T04:17:29.827Z,0.00
2023-01-04T04:18:19.802Z,0.00
2023-01-04T04:19:09.788Z,0.00
2023-01-04T04:19:59.785Z,0.00
2023-01-04T04:20:49.805Z,0.00
2023-01-04T04:21:39.783Z,0.00
2023-01-04T04:22:29.758Z,0.00
2023-01-04T04:23:19.748Z,0.00
2023-01-04T04:24:09.725Z,0.00
2023-01-04T04:24:59.755Z,0.00
2023-01-04T04:25:49.729Z,0.00
2023-01-04T04:26:39.718Z,0.00
2023-01-04T04:27:29.691Z,0.00
2023-01-04T04:28:19.685Z,0.00
2023-01-04T04:29:09.674Z,0.00
2023-01-04T04:29:59.687Z,0.00
2023-01-04T04:30:49.687Z,0.00
2023-01-04T04:31:39.762Z,0.00
2023-01-04T04:32:29.639Z,0.00
2023-01-04T04:33:19.642Z,0.00
2023-01-04T04:34:09.622Z,0.00
2023-01-04T04:34:59.613Z,0.00
2023-01-04T04:35:49.639Z,0.00
2023-01-04T04:36:39.595Z,0.00
2023-01-04T04:37:29.583Z,0.00
2023-01-04T04:38:19.573Z,0.00
2023-01-04T04:39:09.562Z,0.00
2023-01-04T04:39:59.576Z,0.00
2023-01-04T04:40:49.613Z,0.00
2023-01-04T04:41:39.607Z,0.00
2023-01-04T04:42:29.535Z,0.00
2023-01-04T04:43:19.522Z,0.00
2023-01-04T04:44:09.511Z,0.00
2023-01-04T04:44:59.514Z,0.00
2023-01-04T04:45:49.564Z,0.00
2023-01-04T04:46:39.494Z,0.00
2023-01-04T04:47:29.473Z,0.00
2023-01-04T04:48:19.472Z,0.00
2023-01-04T04:49:09.472Z,0.00
2023-01-04T04:49:59.451Z,0.00
2023-01-04T04:50:49.453Z,0.00
2023-01-04T04:51:39.460Z,0.00
2023-01-04T04:52:29.426Z,0.00
2023-01-04T04:53:19.412Z,0.00
2023-01-04T04:54:09.423Z,0.00
2023-01-04T04:54:59.401Z,0.00
2023-01-04T04:55:49.408Z,0.00
2023-01-04T04:56:39.374Z,0.00
2023-01-04T04:57:29.360Z,0.00
2023-01-04T04:58:19.380Z,0.00
2023-01-04T04:59:09.346Z,0.00
2023-01-04T04:59:59.338Z,0.00
2023-01-04T05:00:49.355Z,0.00
2023-01-04T05:01:39.467Z,0.00
2023-01-04T05:02:29.558Z,0.00
2023-01-04T05:03:19.350Z,0.00
2023-01-04T05:04:09.289Z,0.00
2023-01-04T05:04:59.287Z,0.00
2023-01-04T05:05:49.296Z,0.00
2023-01-04T05:06:39.275Z,0.00
2023-01-04T05:07:29.285Z,0.00
2023-01-04T05:08:19.267Z,0.00
2023-01-04T05:09:09.225Z,0.00
2023-01-04T05:09:59.233Z,0.00
2023-01-04T05:10:49.226Z,0.00
2023-01-04T05:11:39.211Z,0.00
2023-01-04T05:12:29.185Z,0.00
2023-01-04T05:13:19.206Z,0.00
2023-01-04T05:14:09.186Z,0.00
2023-01-04T05:14:59.164Z,0.00
2023-01-04T05:15:49.170Z,0.00
2023-01-04T05:16:39.224Z,0.00
2023-01-04T05:17:29.145Z,0.00
2023-01-04T05:18:19.140Z,0.00
2023-01-04T05:19:09.128Z,0.00
2023-01-04T05:19:59.125Z,0.00
2023-01-04T05:20:49.136Z,0.00
2023-01-04T05:21:39.104Z,0.00
2023-01-04T05:22:29.088Z,0.00
2023-01-04T05:23:19.086Z,0.00
2023-01-04T05:24:09.075Z,0.00
2023-01-04T05:24:59.073Z,0.00
2023-01-04T05:25:49.064Z,0.00
2023-01-04T05:26:39.051Z,0.00
2023-01-04T05:27:29.053Z,0.00
2023-01-04T05:28:19.023Z,0.00
2023-01-04T05:29:09.012Z,0.00
2023-01-04T05:29:59.013Z,0.00
2023-01-04T05:30:49.000Z,0.00
2023-01-04T05:31:39.055Z,0.00
2023-01-04T05:32:29.011Z,0.00
2023-01-04T05:33:18.972Z,0.00
2023-01-04T05:34:08.971Z,0.00
2023-01-04T05:34:58.971Z,0.00
2023-01-04T05:35:48.962Z,0.00
2023-01-04T05:36:38.960Z,0.00
2023-01-04T05:37:28.920Z,0.00
2023-01-04T05:38:18.921Z,0.00
2023-01-04T05:39:08.910Z,0.00
2023-01-04T05:39:58.899Z,0.00
2023-01-04T05:40:48.897Z,0.00
2023-01-04T05:41:39.220Z,0.00
2023-01-04T05:42:28.865Z,0.00
2023-01-04T05:43:18.869Z,0.00
2023-01-04T05:44:08.850Z,0.00
2023-01-04T05:44:58.850Z,0.00
2023-01-04T05:45:48.951Z,0.00
2023-01-04T05:46:38.823Z,0.00
2023-01-04T05:47:28.812Z,0.00
2023-01-04T05:48:18.810Z,0.00
2023-01-04T05:49:08.805Z,0.00
2023-01-04T05:49:58.790Z,0.00
2023-01-04T05:50:48.798Z,0.00
2023-01-04T05:51:38.783Z,0.00
2023-01-04T05:52:28.787Z,0.00
2023-01-04T05:53:18.990Z,0.00
2023-01-04T05:54:08.746Z,0.00
2023-01-04T05:54:58.739Z,0.00
2023-01-04T05:55:48.743Z,0.00
2023-01-04T05:56:38.725Z,0.00
2023-01-04T05:57:28.700Z,0.00
2023-01-04T05:58:18.698Z,0.00
2023-01-04T05:59:08.700Z,0.00
2023-01-04T05:59:58.695Z,0.00
2023-01-04T06:00:48.680Z,0.00
2023-01-04T06:01:38.743Z,0.00
2023-01-04T06:02:28.737Z,0.00
2023-01-04T06:03:18.761Z,0.00
2023-01-04T06:04:08.652Z,0.00
2023-01-04T06:04:59.594Z,0.00
2023-01-04T06:05:48.616Z,0.00
2023-01-04T06:06:38.607Z,0.00
2023-01-04T06:07:28.609Z,0.00
2023-01-04T06:08:18.608Z,0.00
2023-01-04T06:09:08.561Z,0.00
2023-01-04T06:09:58.567Z,0.00
2023-01-04T06:10:48.571Z,0.00
2023-01-04T06:11:38.549Z,0.00
2023-01-04T06:12:28.545Z,0.00
2023-01-04T06:13:18.534Z,0.00
2023-01-04T06:14:08.518Z,0.00
2023-01-04T06:14:58.503Z,0.00
2023-01-04T06:15:48.585Z,0.00
2023-01-04T06:16:38.579Z,0.00
2023-01-04T06:17:28.478Z,0.00
2023-01-04T06:18:18.480Z,0.00
2023-01-04T06:19:08.471Z,0.00
2023-01-04T06:19:58.460Z,0.00
2023-01-04T06:20:48.479Z,0.00
2023-01-04T06:21:38.431Z,0.00
2023-01-04T06:22:28.427Z,0.00
2023-01-04T06:23:18.417Z,0.00
2023-01-04T06:24:08.417Z,0.00
2023-01-04T06:24:58.401Z,0.00
2023-01-04T06:25:48.428Z,0.00
2023-01-04T06:26:38.379Z,0.00
2023-01-04T06:27:28.387Z,0.00
2023-01-04T06:28:18.367Z,0.00
2023-01-04T06:29:08.373Z,0.00
2023-01-04T06:29:58.359Z,0.00
2023-01-04T06:30:48.460Z,0.00
2023-01-04T06:31:38.321Z,0.00
2023-01-04T06:32:28.322Z,0.00
2023-01-04T06:33:18.321Z,0.00
2023-01-04T06:34:08.327Z,0.00
2023-01-04T06:34:58.286Z,0.00
2023-01-04T06:35:48.300Z,0.00
2023-01-04T06:36:38.310Z,0.00
2023-01-04T06:37:28.273Z,0.00
2023-01-04T06:38:18.247Z,0.00
2023-01-04T06:39:08.242Z,0.00
2023-01-04T06:39:58.240Z,0.00
2023-01-04T06:40:48.230Z,0.00
2023-01-04T06:41:38.231Z,0.00
2023-01-04T06:42:28.214Z,0.00
2023-01-04T06:43:18.192Z,0.00
2023-01-04T06:44:08.202Z,0.00
2023-01-04T06:44:58.193Z,0.00
2023-01-04T06:45:48.242Z,0.00
2023-01-04T06:46:38.234Z,0.00
2023-01-04T06:47:28.170Z,0.00
2023-01-04T06:48:18.796Z,4.00
2023-01-04T06:49:08.128Z,4.00
2023-01-04T06:49:58.133Z,0.00
2023-01-04T06:50:49.117Z,4.00
2023-01-04T06:51:38.113Z,4.00
2023-01-04T06:52:28.102Z,0.00
2023-01-04T06:53:18.091Z,4.00
2023-01-04T06:54:08.083Z,4.00
2023-01-04T06:54:58.090Z,4.00
2023-01-04T06:55:48.062Z,4.00
2023-01-04T06:56:38.056Z,8.00
2023-01-04T06:57:28.045Z,8.00
2023-01-04T06:58:18.032Z,12.00
2023-01-04T06:59:08.013Z,8.00
2023-01-04T06:59:58.012Z,8.00
2023-01-04T07:00:48.013Z,12.00
2023-01-04T07:01:38.047Z,12.00
2023-01-04T07:02:28.140Z,12.00
2023-01-04T07:03:18.096Z,16.00
2023-01-04T07:04:08.039Z,16.00
2023-01-04T07:04:58.010Z,16.00
2023-01-04T07:05:47.969Z,20.00
2023-01-04T07:06:37.942Z,20.00
2023-01-04T07:07:27.934Z,24.00
2023-01-04T07:08:17.932Z,28.00
2023-01-04T07:09:07.912Z,28.00
2023-01-04T07:09:59.412Z,28.00
2023-01-04T07:10:47.911Z,32.00
2023-01-04T07:11:37.880Z,32.00
2023-01-04T07:12:27.882Z,40.00
2023-01-04T07:13:17.871Z,40.00
2023-01-04T07:14:07.876Z,48.00
2023-01-04T07:14:57.850Z,48.00
2023-01-04T07:15:48.010Z,56.00
2023-01-04T07:16:37.920Z,60.00
2023-01-04T07:17:30.000Z,60.00
2023-01-04T07:18:17.810Z,68.00
2023-01-04T07:19:07.799Z,68.00
2023-01-04T07:19:57.786Z,72.00
2023-01-04T07:20:47.803Z,76.00
2023-01-04T07:21:37.798Z,80.00
2023-01-04T07:22:27.775Z,84.00
2023-01-04T07:23:17.757Z,92.00
2023-01-04T07:24:07.753Z,100.00
2023-01-04T07:24:57.735Z,112.00
2023-01-04T07:25:47.727Z,124.00
2023-01-04T07:26:37.736Z,140.00
2023-01-04T07:27:27.710Z,152.00
2023-01-04T07:28:17.700Z,168.00
2023-01-04T07:29:07.689Z,176.00
2023-01-04T07:29:57.677Z,188.00
2023-01-04T07:30:47.772Z,196.00
2023-01-04T07:31:44.653Z,200.00
2023-01-04T07:32:27.643Z,208.00
2023-01-04T07:33:17.631Z,212.00
2023-01-04T07:34:07.637Z,220.00
2023-01-04T07:34:57.619Z,228.00
2023-01-04T07:35:47.628Z,240.00
2023-01-04T07:36:37.616Z,260.00
2023-01-04T07:37:27.600Z,288.00
2023-01-04T07:38:17.587Z,308.00
2023-01-04T07:39:07.571Z,332.00
2023-01-04T07:39:57.561Z,348.00
2023-01-04T07:40:55.945Z,356.00
2023-01-04T07:41:38.559Z,364.00
2023-01-04T07:42:27.547Z,368.00
2023-01-04T07:43:20.415Z,380.00
2023-01-04T07:44:08.518Z,396.00
2023-01-04T07:44:57.511Z,412.00
2023-01-04T07:45:47.573Z,440.00
2023-01-04T07:46:37.549Z,468.00
2023-01-04T07:47:27.490Z,500.00
2023-01-04T07:48:17.488Z,536.00
2023-01-04T07:49:11.692Z,564.00
2023-01-04T07:49:58.472Z,592.00
2023-01-04T07:50:47.455Z,624.00
2023-01-04T07:51:37.454Z,656.00
2023-01-04T07:52:27.455Z,688.00
2023-01-04T07:53:17.445Z,716.00
2023-01-04T07:54:07.425Z,760.00
2023-01-04T07:54:57.409Z,804.00
2023-01-04T07:55:47.397Z,848.00
2023-01-04T07:56:37.387Z,888.00
2023-01-04T07:57:27.372Z,928.00
2023-01-04T07:58:17.385Z,968.00
2023-01-04T07:59:07.359Z,996.00
2023-01-04T07:59:57.356Z,1020.00
2023-01-04T08:00:47.340Z,1032.00
2023-01-04T08:01:37.404Z,1036.00
2023-01-04T08:02:27.443Z,1040.00
2023-01-04T08:03:17.321Z,1052.00
2023-01-04T08:04:07.428Z,1068.00
2023-01-04T08:04:57.382Z,1088.00
2023-01-04T08:05:47.302Z,1108.00
2023-01-04T08:06:37.275Z,1144.00
2023-01-04T08:07:27.275Z,1160.00
2023-01-04T08:08:17.281Z,1176.00
2023-01-04T08:09:07.245Z,1168.00
2023-01-04T08:09:57.236Z,1164.00
2023-01-04T08:10:47.236Z,1176.00
2023-01-04T08:11:37.228Z,1184.00
2023-01-04T08:12:27.214Z,1188.00
2023-01-04T08:13:17.211Z,1184.00
2023-01-04T08:14:07.199Z,1168.00
2023-01-04T08:14:57.183Z,1140.00
2023-01-04T08:15:47.223Z,1120.00
2023-01-04T08:16:37.219Z,1108.00
2023-01-04T08:17:27.153Z,1100.00
2023-01-04T08:18:20.410Z,1092.00
2023-01-04T08:19:07.215Z,1092.00
2023-01-04T08:19:57.123Z,1084.00
2023-01-04T08:20:47.137Z,1080.00
2023-01-04T08:21:37.119Z,1076.00
2023-01-04T08:22:27.104Z,1092.00
2023-01-04T08:23:17.102Z,1092.00
2023-01-04T08:24:07.093Z,1100.00
2023-01-04T08:24:57.071Z,1112.00
2023-01-04T08:25:47.062Z,1140.00
2023-01-04T08:26:37.071Z,1180.00
2023-01-04T08:27:27.049Z,1220.00
2023-01-04T08:28:17.041Z,1248.00
2023-01-04T08:29:07.031Z,1276.00
2023-01-04T08:29:57.012Z,1292.00
2023-01-04T08:30:47.079Z,1300.00
2023-01-04T08:31:37.069Z,1300.00
2023-01-04T08:32:27.021Z,1288.00
2023-01-04T08:33:17.006Z,1284.00
2023-01-04T08:34:06.988Z,1276.00
2023-01-04T08:34:56.961Z,1288.00
2023-01-04T08:35:46.975Z,1300.00
2023-01-04T08:36:36.955Z,1320.00
2023-01-04T08:37:26.948Z,1348.00
2023-01-04T08:38:57.690Z,1368.00
2023-01-04T08:39:07.940Z,1392.00
2023-01-04T08:39:56.906Z,1420.00
2023-01-04T08:40:58.563Z,1428.00
2023-01-04T08:42:31.639Z,1492.00
2023-01-04T08:43:16.897Z,1536.00
2023-01-04T08:44:06.856Z,1556.00
2023-01-04T08:44:59.505Z,1584.00
2023-01-04T08:45:46.837Z,1624.00
2023-01-04T08:46:36.888Z,1672.00
2023-01-04T08:47:26.855Z,1680.00
2023-01-04T08:48:22.598Z,1660.00
2023-01-04T08:49:07.834Z,1648.00
2023-01-04T08:49:56.797Z,1640.00
2023-01-04T08:50:46.786Z,1656.00
2023-01-04T08:51:36.774Z,1672.00
2023-01-04T08:52:26.773Z,1728.00
2023-01-04T08:53:16.774Z,1792.00
2023-01-04T08:54:06.747Z,1828.00
2023-01-04T08:54:56.757Z,1824.00
2023-01-04T08:55:46.738Z,1856.00
2023-01-04T08:56:36.751Z,1864.00
2023-01-04T08:57:26.715Z,1876.00
2023-01-04T08:58:16.738Z,1884.00
2023-01-04T08:59:06.745Z,1896.00
2023-01-04T08:59:56.685Z,1892.00
2023-01-04T09:00:46.684Z,1916.00
2023-01-04T09:01:36.824Z,2004.00
2023-01-04T09:02:26.961Z,2076.00
2023-01-04T09:03:16.795Z,2168.00
2023-01-04T09:04:06.766Z,2232.00
2023-01-04T09:04:56.694Z,2256.00
2023-01-04T09:05:46.647Z,2228.00
2023-01-04T09:06:36.673Z,2228.00
2023-01-04T09:07:26.604Z,2320.00
2023-01-04T09:08:16.620Z,2352.00
2023-01-04T09:09:06.643Z,2416.00
2023-01-04T09:09:56.575Z,2412.00
2023-01-04T09:10:46.582Z,2364.00
2023-01-04T09:11:36.584Z,2392.00
2023-01-04T09:12:26.545Z,2432.00
2023-01-04T09:13:16.552Z,2392.00
2023-01-04T09:14:08.376Z,2412.00
2023-01-04T09:14:56.520Z,2536.00
2023-01-04T09:15:46.540Z,2536.00
2023-01-04T09:16:36.549Z,2456.00
2023-01-04T09:17:26.490Z,2408.00
2023-01-04T09:18:32.885Z,2344.00
2023-01-04T09:19:07.485Z,2460.00
2023-01-04T09:19:56.472Z,2504.00
2023-01-04T09:20:46.461Z,2640.00
2023-01-04T09:21:36.510Z,2656.00
2023-01-04T09:22:26.519Z,2616.00
2023-01-04T09:23:16.443Z,2696.00
2023-01-04T09:24:06.419Z,2844.00
2023-01-04T09:24:56.416Z,2924.00
2023-01-04T09:25:46.402Z,2864.00
2023-01-04T09:26:36.389Z,2724.00
2023-01-04T09:27:26.380Z,2664.00
2023-01-04T09:28:16.379Z,2760.00
2023-01-04T09:29:06.371Z,2720.00
2023-01-04T09:29:56.348Z,2624.00
2023-01-04T09:30:46.354Z,2580.00
2023-01-04T09:31:36.359Z,2476.00
2023-01-04T09:32:26.354Z,2544.00
2023-01-04T09:33:16.329Z,2592.00
2023-01-04T09:34:16.114Z,2568.00
2023-01-04T09:34:57.300Z,2592.00
2023-01-04T09:35:46.300Z,2612.00
2023-01-04T09:36:36.306Z,2520.00
2023-01-04T09:37:26.276Z,2468.00
2023-01-04T09:38:16.269Z,2428.00
2023-01-04T09:39:06.278Z,2596.00
2023-01-04T09:39:56.237Z,2656.00
2023-01-04T09:40:46.237Z,2716.00
2023-01-04T09:41:36.217Z,2688.00
2023-01-04T09:42:29.205Z,2640.00
2023-01-04T09:43:20.962Z,2660.00
2023-01-04T09:44:06.221Z,2576.00
2023-01-04T09:45:47.178Z,2280.00
2023-01-04T09:46:36.261Z,2304.00
2023-01-04T09:47:26.162Z,2196.00
2023-01-04T09:48:21.463Z,1992.00
2023-01-04T09:51:21.241Z,2440.00
2023-01-04T09:52:11.233Z,2204.00
2023-01-04T09:53:01.246Z,2228.00
2023-01-04T09:53:51.211Z,2108.00
2023-01-04T09:54:41.220Z,2004.00
2023-01-04T09:55:39.033Z,2104.00
2023-01-04T09:56:22.213Z,2212.00
2023-01-04T09:57:11.199Z,2412.00
2023-01-04T09:58:01.184Z,2596.00
2023-01-04T09:58:51.168Z,2860.00
2023-01-04T09:59:41.161Z,3004.00
2023-01-04T10:00:31.190Z,3028.00
2023-01-04T10:01:21.220Z,2896.00
2023-01-04T10:02:11.371Z,2800.00
2023-01-04T10:03:01.240Z,2768.00
2023-01-04T10:03:51.195Z,2784.00
2023-01-04T10:04:41.161Z,2760.00
2023-01-04T10:05:31.087Z,2744.00
2023-01-04T10:06:21.079Z,2624.00
2023-01-04T10:07:11.069Z,2592.00
2023-01-04T10:08:01.073Z,2700.00
2023-01-04T10:08:51.061Z,2888.00
2023-01-04T10:09:41.040Z,3032.00
2023-01-04T10:10:31.048Z,3160.00
2023-01-04T10:11:21.020Z,3460.00
2023-01-04T10:12:11.009Z,3376.00
2023-01-04T10:13:01.051Z,3200.00
2023-01-04T10:13:50.996Z,3212.00
2023-01-04T10:14:40.978Z,3212.00
2023-01-04T10:15:31.720Z,2868.00
2023-01-04T10:16:30.411Z,2732.00
2023-01-04T10:17:14.374Z,2632.00
2023-01-04T10:21:32.972Z,2772.00
2023-01-04T10:22:12.041Z,2912.00
2023-01-04T10:23:00.922Z,3136.00
2023-01-04T10:23:50.889Z,3264.00
2023-01-04T10:24:40.879Z,3140.00
2023-01-04T10:25:30.865Z,3016.00
2023-01-04T10:26:20.907Z,3052.00
2023-01-04T10:27:10.854Z,3140.00
2023-01-04T10:28:00.864Z,3220.00
2023-01-04T10:28:50.852Z,3112.00
2023-01-04T10:29:40.817Z,2992.00
2023-01-04T10:30:30.803Z,2940.00
2023-01-04T10:31:40.955Z,3112.00
2023-01-04T10:32:11.839Z,3268.00
2023-01-04T10:33:00.794Z,3440.00
2023-01-04T10:33:50.785Z,3648.00
2023-01-04T10:34:40.776Z,3760.00
2023-01-04T10:35:30.754Z,3764.00
2023-01-04T10:36:20.747Z,3932.00
2023-01-04T10:37:10.793Z,4300.00
2023-01-04T10:38:00.744Z,4008.00
2023-01-04T10:38:50.726Z,3728.00
2023-01-04T10:39:40.714Z,3764.00
2023-01-04T10:40:30.703Z,3820.00
2023-01-04T10:41:20.694Z,4180.00
2023-01-04T10:42:10.705Z,4176.00
2023-01-04T10:43:00.692Z,4252.00
2023-01-04T10:44:10.621Z,4528.00
2023-01-04T10:44:41.701Z,4260.00
2023-01-04T10:45:30.645Z,4256.00
2023-01-04T10:46:20.686Z,4572.00
2023-01-04T10:47:10.688Z,4628.00
2023-01-04T10:48:00.647Z,4584.00
2023-01-04T10:48:50.606Z,4372.00
2023-01-04T10:49:40.632Z,4616.00
2023-01-04T10:50:30.596Z,4868.00
2023-01-04T10:51:20.575Z,4680.00
2023-01-04T10:52:10.567Z,4976.00